Time;durP1;ratioP1;P1;durP2;ratioP2;P2;SDS_P1;SDS_P2;PMS_P1;PMS_P2;Temp;Humidity;BMP_temperature;BMP_pressure;BME280_temperature;BME280_humidity;BME280_pressure;Samples;Min_cycle;Max_cycle;Signal;HPM_P1;HPM_P2
2022/10/17 00:01:21;;;;;;;;;16.33;16.33;;;;;18.51;77.46;100684.06;5097618;27;55075;-62
2022/10/17 00:03:46;;;;;;;;;13.00;12.00;;;;;18.51;77.27;100694.72;5097540;27;45474;-62
2022/10/17 00:06:13;;;;;;;;;11.67;11.67;;;;;18.51;76.99;100696.50;5097876;27;45424;-64
2022/10/17 00:08:41;;;;;;;;;11.67;11.67;;;;;18.51;76.85;100689.38;5098673;27;45501;-61
2022/10/17 00:11:11;;;;;;;;;10.33;10.00;;;;;18.51;76.93;100689.38;5079426;27;45410;-62
2022/10/17 00:13:37;;;;;;;;;12.67;11.67;;;;;18.54;77.20;100693.66;5077405;27;45467;-62
2022/10/17 00:16:03;;;;;;;;;11.67;11.67;;;;;18.53;76.76;100699.91;5077240;28;45519;-62
2022/10/17 00:18:28;;;;;;;;;15.67;14.00;;;;;18.55;77.21;100704.19;5077691;27;45481;-62
2022/10/17 00:20:53;;;;;;;;;10.67;10.67;;;;;18.55;76.76;100706.00;5076995;28;51118;-62
2022/10/17 00:23:19;;;;;;;;;12.33;12.33;;;;;18.53;76.78;100699.91;5077080;27;45487;-62
2022/10/17 00:25:44;;;;;;;;;11.67;11.67;;;;;18.51;76.68;100697.38;5076319;27;45528;-62
2022/10/17 00:28:14;;;;;;;;;13.00;13.00;;;;;18.52;77.19;100707.06;5077663;27;45578;-62
2022/10/17 00:30:40;;;;;;;;;11.33;11.33;;;;;18.52;77.09;100706.22;5077092;27;45612;-62
2022/10/17 00:33:05;;;;;;;;;11.67;11.67;;;;;18.54;77.16;100712.28;5085693;27;45441;-62
2022/10/17 00:35:31;;;;;;;;;12.33;11.67;;;;;18.52;76.51;100712.38;5097558;27;45422;-62
2022/10/17 00:37:57;;;;;;;;;10.00;10.00;;;;;18.53;77.07;100719.41;5097572;27;45571;-62
2022/10/17 00:40:22;;;;;;;;;11.00;10.33;;;;;18.53;76.43;100719.41;5096402;27;46150;-62
2022/10/17 00:42:50;;;;;;;;;12.67;10.67;;;;;18.54;76.36;100728.28;5096864;27;45444;-62
2022/10/17 00:45:23;;;;;;;;;11.33;11.33;;;;;18.53;76.29;100729.22;5077764;27;45335;-62
2022/10/17 00:47:54;;;;;;;;;13.00;12.33;;;;;18.54;76.58;100725.63;5076921;28;45448;-62
2022/10/17 00:50:21;;;;;;;;;11.67;11.67;;;;;18.53;76.69;100723.88;5076708;27;45574;-62
2022/10/17 00:52:47;;;;;;;;;13.00;12.00;;;;;18.51;76.40;100713.34;5075571;28;45451;-62
2022/10/17 00:55:23;;;;;;;;;12.00;12.00;;;;;18.50;76.34;100708.97;5076862;27;45417;-62
2022/10/17 00:57:49;;;;;;;;;12.67;11.33;;;;;18.52;76.50;100712.38;5089522;27;45561;-62
2022/10/17 01:00:17;;;;;;;;;12.33;9.67;;;;;18.52;76.57;100719.53;5094658;27;45603;-62
2022/10/17 01:02:43;;;;;;;;;13.67;10.67;;;;;18.51;76.30;100723.13;5076506;27;45426;-62
2022/10/17 01:05:09;;;;;;;;;10.00;10.00;;;;;18.51;76.03;100723.13;5076792;28;45413;-62
2022/10/17 01:07:36;;;;;;;;;11.33;11.33;;;;;18.52;76.25;100719.53;5077433;27;45349;-62
2022/10/17 01:10:04;;;;;;;;;13.00;12.00;;;;;18.53;76.11;100723.88;5076360;27;46175;-62
2022/10/17 01:12:55;;;;;;;;;12.00;12.00;;;;;18.51;75.79;100716.00;5076527;27;45377;-62
2022/10/17 01:15:35;;;;;;;;;9.00;9.00;;;;;18.51;75.76;100704.47;5077390;27;45526;-62
2022/10/17 01:18:07;;;;;;;;;12.67;12.67;;;;;18.49;75.88;100711.75;5077059;27;45436;-62
2022/10/17 01:20:54;;;;;;;;;10.33;10.33;;;;;18.50;75.97;100718.78;5076062;27;45425;-62
2022/10/17 01:23:32;;;;;;;;;13.00;11.00;;;;;18.52;75.26;100732.84;5076199;28;45428;-62
2022/10/17 01:26:15;;;;;;;;;11.33;10.67;;;;;18.51;75.49;100733.78;5076476;27;45469;-62
2022/10/17 01:29:04;;;;;;;;;11.33;10.33;;;;;18.50;75.11;100732.09;5081388;27;45411;-61
2022/10/17 01:32:00;;;;;;;;;11.33;11.33;;;;;18.50;75.22;100732.94;5096401;27;46013;-62
2022/10/17 01:34:35;;;;;;;;;10.67;10.67;;;;;18.52;75.08;100733.69;5092405;27;45468;-62
2022/10/17 01:37:03;;;;;;;;;12.00;11.33;;;;;18.52;74.44;100733.69;5074896;27;45436;-62
2022/10/17 01:39:43;;;;;;;;;11.00;11.00;;;;;18.52;74.81;100727.53;5075651;27;45396;-62
2022/10/17 01:42:16;;;;;;;;;9.33;9.33;;;;;18.53;74.17;100732.72;5075938;27;46515;-62
2022/10/17 01:44:52;;;;;;;;;9.33;8.67;;;;;18.53;74.31;100737.22;5076155;27;45331;-62
2022/10/17 01:47:23;;;;;;;;;11.00;9.67;;;;;18.54;74.21;100739.78;5076086;27;45446;-62
2022/10/17 01:49:52;;;;;;;;;10.33;10.33;;;;;18.54;74.20;100744.25;5076260;28;45435;-62
2022/10/17 01:52:51;;;;;;;;;10.67;10.67;;;;;18.51;74.19;100742.66;5076334;27;45449;-62
2022/10/17 01:55:31;;;;;;;;;7.00;7.00;;;;;18.52;74.28;100743.50;5075630;28;45540;-62
2022/10/17 01:58:03;;;;;;;;;9.67;9.67;;;;;18.50;74.25;100746.25;5076035;27;45402;-62
2022/10/17 02:00:31;;;;;;;;;9.67;9.67;;;;;18.47;74.21;100742.94;5076027;28;45509;-62
2022/10/17 02:03:05;;;;;;;;;9.33;9.00;;;;;18.46;74.56;100750.09;5075650;27;45409;-62
2022/10/17 02:05:36;;;;;;;;;8.67;8.67;;;;;18.47;74.39;100741.13;5075923;28;45465;-62
2022/10/17 02:08:02;;;;;;;;;10.33;10.33;;;;;18.46;73.92;100735.94;5076953;27;45439;-62
2022/10/17 02:10:37;;;;;;;;;9.00;8.67;;;;;18.45;74.25;100736.84;5075674;27;45403;-62
2022/10/17 02:13:03;;;;;;;;;10.33;10.33;;;;;18.45;74.41;100742.19;5089888;27;45477;-62
2022/10/17 02:15:41;;;;;;;;;8.33;8.33;;;;;18.43;73.93;100742.31;5094872;27;46040;-63
2022/10/17 02:18:19;;;;;;;;;10.00;10.00;;;;;18.42;74.09;100747.72;5096187;27;45433;-62
2022/10/17 02:20:55;;;;;;;;;8.00;8.00;;;;;18.41;74.24;100746.88;5096338;27;45472;-62
2022/10/17 02:23:29;;;;;;;;;9.00;8.67;;;;;18.40;73.93;100733.66;5095971;27;46393;-62
2022/10/17 02:26:18;;;;;;;;;7.33;6.67;;;;;18.38;74.06;100735.56;5087638;27;45516;-62
2022/10/17 02:29:04;;;;;;;;;11.33;10.33;;;;;18.39;74.44;100734.59;5065020;27;45520;-62
2022/10/17 02:31:43;;;;;;;;;9.67;9.33;;;;;18.35;74.21;100715.34;5075495;27;45408;-62
2022/10/17 02:34:17;;;;;;;;;12.00;11.00;;;;;18.35;74.17;100714.44;5057791;27;48059;-62
2022/10/17 02:36:47;;;;;;;;;9.00;6.67;;;;;18.36;74.38;100722.34;5090743;27;45626;-62
2022/10/17 02:39:15;;;;;;;;;8.67;8.67;;;;;18.37;74.28;100721.38;5077147;27;45499;-62
2022/10/17 02:41:43;;;;;;;;;8.67;8.67;;;;;18.35;74.46;100720.66;5095016;27;45523;-62
2022/10/17 02:44:10;;;;;;;;;9.67;8.67;;;;;18.38;74.50;100724.94;5076868;27;46189;-62
2022/10/17 02:46:38;;;;;;;;;9.33;9.33;;;;;18.33;74.25;100712.75;5081670;27;45568;-63
2022/10/17 02:49:28;;;;;;;;;12.33;10.33;;;;;18.39;74.09;100726.63;5098336;27;45586;-61
2022/10/17 02:52:00;;;;;;;;;9.00;9.00;;;;;18.40;74.05;100739.81;5098136;27;45454;-62
2022/10/17 02:54:34;;;;;;;;;9.00;9.00;;;;;18.39;74.40;100746.13;5099103;27;45399;-62
2022/10/17 02:57:07;;;;;;;;;12.67;11.33;;;;;18.40;74.39;100737.16;5097753;27;45503;-62
2022/10/17 02:59:35;;;;;;;;;12.67;10.67;;;;;18.42;73.89;100750.38;5093366;27;45449;-62
2022/10/17 03:02:03;;;;;;;;;10.00;10.00;;;;;18.38;74.39;100743.56;5078464;27;45620;-62
2022/10/17 03:04:28;;;;;;;;;10.00;10.00;;;;;18.39;73.95;100734.59;5078341;27;45408;-62
2022/10/17 03:06:53;;;;;;;;;11.00;9.67;;;;;18.40;74.09;100736.31;5078441;27;45460;-62
2022/10/17 03:09:19;;;;;;;;;12.00;12.00;;;;;18.38;74.36;100739.09;5095037;27;45445;-62
2022/10/17 03:11:44;;;;;;;;;8.67;8.67;;;;;18.37;74.04;100731.19;5078106;27;51397;-62
2022/10/17 03:14:09;;;;;;;;;8.00;8.00;;;;;18.37;74.38;100741.84;5077962;28;56449;-62
2022/10/17 03:16:35;;;;;;;;;9.00;7.33;;;;;18.36;73.99;100748.13;5084948;27;45375;-62
2022/10/17 03:19:00;;;;;;;;;7.00;7.00;;;;;18.35;74.10;100741.06;5078249;27;45472;-62
2022/10/17 03:21:25;;;;;;;;;9.67;9.67;;;;;18.34;74.44;100740.22;5088330;27;45443;-62
2022/10/17 03:23:51;;;;;;;;;8.33;8.33;;;;;18.33;74.49;100746.53;5098410;27;49936;-62
2022/10/17 03:26:16;;;;;;;;;9.67;8.67;;;;;18.30;74.14;100736.94;5098589;27;45456;-62
2022/10/17 03:28:41;;;;;;;;;9.67;9.67;;;;;18.33;73.93;100749.19;5098833;27;45487;-62
2022/10/17 03:31:09;;;;;;;;;7.33;7.33;;;;;18.33;73.94;100759.84;5098766;27;45403;-62
2022/10/17 03:33:36;;;;;;;;;11.00;11.00;;;;;18.32;74.06;100756.31;5090301;27;45451;-62
2022/10/17 03:36:10;;;;;;;;;10.00;8.33;;;;;18.33;73.82;100765.16;5098586;27;45419;-62
2022/10/17 03:38:35;;;;;;;;;8.33;8.33;;;;;18.34;73.92;100766.84;5098844;27;45450;-62
2022/10/17 03:41:01;;;;;;;;;11.67;10.00;;;;;18.32;73.64;100787.41;5098400;27;45445;-62
2022/10/17 03:43:27;;;;;;;;;8.33;8.33;;;;;18.32;73.87;100792.72;5098287;27;45473;-62
2022/10/17 03:45:53;;;;;;;;;9.33;9.33;;;;;18.31;73.76;100789.22;5098758;27;45411;-62
2022/10/17 03:48:18;;;;;;;;;11.00;9.33;;;;;18.35;73.50;100797.88;5098369;27;45479;-61
2022/10/17 03:50:43;;;;;;;;;12.33;10.00;;;;;18.36;73.43;100804.06;5097232;27;45964;-62
2022/10/17 03:53:08;;;;;;;;;8.33;8.33;;;;;18.35;73.14;100803.19;5097510;27;54562;-62
2022/10/17 03:55:34;;;;;;;;;7.67;7.33;;;;;18.36;73.03;100801.38;5098163;27;45365;-62
2022/10/17 03:57:59;;;;;;;;;9.67;8.67;;;;;18.35;72.82;100802.31;5097907;27;45452;-62
2022/10/17 04:00:24;;;;;;;;;11.67;10.67;;;;;18.33;72.97;100808.63;5097912;27;47061;-62
2022/10/17 04:02:50;;;;;;;;;13.00;11.33;;;;;18.32;72.57;100809.59;5097642;27;45529;-62
2022/10/17 04:05:15;;;;;;;;;7.33;7.33;;;;;18.31;72.90;100809.66;5097495;27;45414;-62
2022/10/17 04:07:40;;;;;;;;;6.67;6.67;;;;;18.29;72.89;100816.88;5092608;27;45382;-62
2022/10/17 04:10:06;;;;;;;;;9.00;9.00;;;;;18.28;72.99;100815.19;5077659;27;45359;-62
2022/10/17 04:12:31;;;;;;;;;10.00;10.00;;;;;18.28;72.53;100805.38;5077259;27;45417;-62
2022/10/17 04:14:57;;;;;;;;;9.67;9.67;;;;;18.28;72.17;100805.38;5077527;27;45498;-62
2022/10/17 04:17:22;;;;;;;;;8.67;7.33;;;;;18.28;72.64;100808.06;5077522;27;45359;-62
2022/10/17 04:19:48;;;;;;;;;9.00;9.00;;;;;18.29;72.28;100808.91;5077148;27;55383;-62
2022/10/17 04:22:14;;;;;;;;;8.00;8.00;;;;;18.27;71.77;100811.69;5077210;27;46214;-62
2022/10/17 04:24:39;;;;;;;;;8.00;8.00;;;;;18.26;72.53;100817.09;5077765;27;45851;-62
2022/10/17 04:27:05;;;;;;;;;11.00;7.75;;;;;18.28;72.38;100823.19;5077261;27;45409;-62
2022/10/17 04:29:30;;;;;;;;;9.33;9.33;;;;;18.26;72.01;100812.63;5077308;27;45535;-62
2022/10/17 04:31:55;;;;;;;;;10.67;10.00;;;;;18.26;71.51;100823.25;5075686;27;46313;-62
2022/10/17 04:34:21;;;;;;;;;8.00;8.00;;;;;18.25;71.93;100826.03;5096396;27;45351;-62
2022/10/17 04:36:46;;;;;;;;;7.00;7.00;;;;;18.25;71.76;100831.38;5097615;27;45412;-62
2022/10/17 04:39:12;;;;;;;;;9.67;8.00;;;;;18.23;71.57;100838.59;5097142;27;45459;-62
2022/10/17 04:41:37;;;;;;;;;8.67;8.67;;;;;18.22;71.71;100837.75;5091422;27;46434;-62
2022/10/17 04:44:02;;;;;;;;;8.33;6.33;;;;;18.21;71.67;100844.00;5096438;27;45498;-62
2022/10/17 04:46:28;;;;;;;;;11.00;11.00;;;;;18.24;71.38;100841.16;5097314;27;45758;-62
2022/10/17 04:48:53;;;;;;;;;8.67;8.67;;;;;18.25;71.82;100837.53;5096125;27;45370;-62
2022/10/17 04:51:19;;;;;;;;;7.00;7.00;;;;;18.27;71.45;100838.31;5097154;27;45484;-62
2022/10/17 04:53:44;;;;;;;;;9.33;9.33;;;;;18.26;71.67;100839.25;5096677;27;45470;-62
2022/10/17 04:56:14;;;;;;;;;9.33;6.33;;;;;18.28;71.21;100848.00;5097802;27;45438;-62
2022/10/17 04:58:40;;;;;;;;;6.33;6.33;;;;;18.28;71.42;100863.97;5091243;27;45515;-63
2022/10/17 05:01:14;;;;;;;;;6.67;6.67;;;;;18.27;71.27;100861.41;5076466;27;45515;-63
2022/10/17 05:03:40;;;;;;;;;8.00;8.00;;;;;18.26;70.94;100863.19;5076655;28;45496;-63
2022/10/17 05:06:11;;;;;;;;;7.33;7.33;;;;;18.27;71.25;100864.09;5076517;27;45484;-63
2022/10/17 05:08:37;;;;;;;;;8.00;8.00;;;;;18.28;70.78;100873.75;5077126;27;45517;-63
2022/10/17 05:11:02;;;;;;;;;11.00;10.00;;;;;18.28;70.93;100879.09;5075847;27;45437;-63
2022/10/17 05:13:28;;;;;;;;;7.33;7.33;;;;;18.26;71.44;100883.66;5076286;27;45533;-63
2022/10/17 05:15:57;;;;;;;;;8.25;7.50;;;;;18.25;71.63;100877.47;5077202;27;45463;-63
2022/10/17 05:18:23;;;;;;;;;8.67;8.67;;;;;18.27;71.31;100878.25;5079791;27;45310;-63
2022/10/17 05:20:48;;;;;;;;;6.33;6.33;;;;;18.26;71.80;100889.81;5093232;27;45484;-63
2022/10/17 05:23:13;;;;;;;;;6.75;6.50;;;;;18.25;72.31;100885.47;5093833;27;45405;-63
2022/10/17 05:25:39;;;;;;;;;9.00;8.50;;;;;18.25;72.10;100879.28;5076490;27;45448;-64
2022/10/17 05:28:04;;;;;;;;;8.33;8.33;;;;;18.25;71.85;100881.94;5076188;27;45579;-63
2022/10/17 05:30:29;;;;;;;;;8.33;7.33;;;;;18.22;72.29;100875.00;5075997;27;45911;-63
2022/10/17 05:32:55;;;;;;;;;13.33;10.67;;;;;18.22;71.95;100876.81;5085218;27;45523;-63
2022/10/17 05:35:21;;;;;;;;;8.33;7.33;;;;;18.16;72.00;100886.06;5094249;27;46202;-63
2022/10/17 05:37:47;;;;;;;;;8.33;8.33;;;;;18.17;72.29;100894.88;5078664;27;45525;-63
2022/10/17 05:40:12;;;;;;;;;8.33;7.00;;;;;18.17;72.46;100886.91;5115042;27;45428;-63
2022/10/17 05:42:37;;;;;;;;;9.67;8.33;;;;;18.14;72.43;100892.44;5112180;27;45399;-63
2022/10/17 05:45:03;;;;;;;;;7.00;7.00;;;;;18.15;72.53;100888.81;5095879;27;45591;-63
2022/10/17 05:47:29;;;;;;;;;10.33;9.33;;;;;18.14;72.49;100895.94;5087198;27;45347;-62
2022/10/17 05:49:54;;;;;;;;;11.00;9.33;;;;;18.13;72.39;100899.53;5078961;27;46437;-63
2022/10/17 05:52:20;;;;;;;;;11.33;11.33;;;;;18.13;72.58;100877.38;5091611;27;45459;-62
2022/10/17 05:54:45;;;;;;;;;9.00;8.67;;;;;18.10;72.81;100873.97;5091229;27;45794;-61
2022/10/17 05:57:10;;;;;;;;;9.67;9.67;;;;;18.11;73.00;100872.19;5095050;27;45546;-61
2022/10/17 05:59:35;;;;;;;;;10.67;8.33;;;;;18.08;72.80;100878.53;5096103;27;46469;-61
2022/10/17 06:02:01;;;;;;;;;9.33;9.00;;;;;18.09;72.83;100874.06;5092723;27;48729;-61
2022/10/17 06:04:26;;;;;;;;;10.33;9.33;;;;;18.10;72.78;100878.44;5096167;27;45400;-61
2022/10/17 06:06:52;;;;;;;;;10.00;9.00;;;;;18.09;72.79;100858.09;5093467;27;45489;-61
2022/10/17 06:09:17;;;;;;;;;9.33;8.67;;;;;18.09;73.03;100877.59;5089490;27;46118;-61
2022/10/17 06:11:43;;;;;;;;;10.00;8.67;;;;;18.07;72.98;100875.97;5082181;27;45526;-61
2022/10/17 06:14:08;;;;;;;;;9.33;9.33;;;;;18.03;73.67;100883.28;5085289;27;45433;-61
2022/10/17 06:16:33;;;;;;;;;10.67;10.67;;;;;18.06;73.08;100890.22;5094252;27;45535;-61
2022/10/17 06:18:59;;;;;;;;;7.67;7.67;;;;;18.08;73.01;100894.50;5095849;27;45463;-61
2022/10/17 06:21:26;;;;;;;;;7.00;7.00;;;;;18.08;73.16;100885.66;5083381;27;45384;-59
2022/10/17 06:23:51;;;;;;;;;7.67;6.67;;;;;18.08;73.45;100886.53;5077876;27;45422;-62
2022/10/17 06:26:17;;;;;;;;;11.67;9.67;;;;;18.08;73.16;100894.50;5094532;27;45452;-62
2022/10/17 06:28:43;;;;;;;;;10.67;9.33;;;;;18.12;73.29;100907.63;5080195;27;46292;-61
2022/10/17 06:31:14;;;;;;;;;7.67;7.67;;;;;18.13;73.17;100912.84;5078128;27;45447;-62
2022/10/17 06:33:40;;;;;;;;;10.33;9.33;;;;;18.15;73.04;100923.41;5078622;27;45381;-62
2022/10/17 06:36:07;;;;;;;;;11.00;10.33;;;;;18.14;73.32;100937.69;5078450;27;45454;-62
2022/10/17 06:38:34;;;;;;;;;8.67;8.67;;;;;18.16;73.13;100931.31;5078529;27;45488;-62
2022/10/17 06:41:08;;;;;;;;;12.67;12.67;;;;;18.14;73.61;100938.53;5077997;27;45476;-62
2022/10/17 06:43:35;;;;;;;;;8.33;8.33;;;;;18.16;73.00;100941.97;5078528;28;45474;-62
2022/10/17 06:46:00;;;;;;;;;9.67;9.67;;;;;18.18;73.50;100952.50;5078471;27;45610;-63
2022/10/17 06:48:26;;;;;;;;;10.33;10.33;;;;;18.18;73.04;100953.34;5077847;27;47992;-62
2022/10/17 06:50:51;;;;;;;;;12.00;12.00;;;;;18.19;73.09;100959.53;5077906;28;49479;-62
2022/10/17 06:53:16;;;;;;;;;11.33;10.33;;;;;18.18;73.41;100964.00;5077191;27;45358;-62
2022/10/17 06:55:42;;;;;;;;;11.67;11.67;;;;;18.18;73.39;100969.31;5078355;27;45640;-62
2022/10/17 06:58:07;;;;;;;;;7.67;7.67;;;;;18.18;73.66;100982.63;5093885;27;46203;-63
2022/10/17 07:00:33;;;;;;;;;13.00;10.33;;;;;18.19;73.08;100980.81;5077553;27;52001;-62
2022/10/17 07:02:58;;;;;;;;;11.67;11.33;;;;;18.19;72.87;100989.69;5078053;27;45421;-62
2022/10/17 07:05:23;;;;;;;;;9.67;9.67;;;;;18.22;73.25;100992.16;5077924;27;45692;-61
2022/10/17 07:07:49;;;;;;;;;10.67;10.67;;;;;18.22;73.11;100997.47;5077796;27;45315;-62
2022/10/17 07:10:14;;;;;;;;;8.67;8.33;;;;;18.23;73.16;101009.84;5078290;27;45408;-62
2022/10/17 07:12:40;;;;;;;;;12.33;12.33;;;;;18.24;73.64;101011.56;5077871;27;45488;-62
2022/10/17 07:15:05;;;;;;;;;11.33;11.00;;;;;18.25;73.60;101015.06;5076663;27;45457;-62
2022/10/17 07:17:31;;;;;;;;;11.00;9.67;;;;;18.27;73.53;101030.00;5077490;27;45536;-62
2022/10/17 07:19:56;;;;;;;;;15.00;12.00;;;;;18.28;73.74;101029.06;5077695;27;45468;-63
2022/10/17 07:22:21;;;;;;;;;11.67;11.67;;;;;18.30;72.96;101043.13;5077147;27;47385;-62
2022/10/17 07:24:47;;;;;;;;;8.33;8.33;;;;;18.31;73.14;101042.19;5077780;27;45413;-63
2022/10/17 07:27:13;;;;;;;;;10.00;10.00;;;;;18.31;73.42;101047.50;5077305;27;51554;-62
2022/10/17 07:29:39;;;;;;;;;10.00;10.00;;;;;18.35;73.13;101047.31;5077549;27;45402;-62
2022/10/17 07:32:07;;;;;;;;;12.00;12.00;;;;;18.37;73.24;101054.25;5077594;27;45481;-62
2022/10/17 07:34:36;;;;;;;;;7.67;7.67;;;;;18.38;73.15;101065.78;5077316;27;45558;-62
2022/10/17 07:37:01;;;;;;;;;10.33;10.33;;;;;18.39;72.76;101063.03;5077128;28;45485;-62
2022/10/17 07:39:27;;;;;;;;;9.67;9.00;;;;;18.41;72.87;101073.59;5077278;27;45553;-63
2022/10/17 07:41:53;;;;;;;;;9.67;9.67;;;;;18.45;72.72;101077.75;5078005;27;45387;-62
2022/10/17 07:44:18;;;;;;;;;9.00;9.00;;;;;18.46;72.82;101085.69;5077272;27;45622;-63
2022/10/17 07:46:43;;;;;;;;;10.33;10.33;;;;;18.46;73.13;101090.16;5077047;27;46588;-62
2022/10/17 07:49:09;;;;;;;;;9.67;8.33;;;;;18.50;72.58;101094.31;5075839;28;45478;-62
2022/10/17 07:51:34;;;;;;;;;9.67;8.00;;;;;18.51;72.82;101104.03;5077471;27;45407;-62
2022/10/17 07:53:59;;;;;;;;;10.33;10.33;;;;;18.52;72.60;101111.94;5077138;27;45560;-62
2022/10/17 07:56:25;;;;;;;;;9.33;8.67;;;;;18.54;72.91;101117.19;5076992;27;45511;-63
2022/10/17 07:58:51;;;;;;;;;7.67;7.67;;;;;18.53;72.46;101113.63;5077187;27;45451;-62
2022/10/17 08:01:16;;;;;;;;;9.67;9.67;;;;;18.50;72.52;101131.63;5077224;27;45501;-62
2022/10/17 08:03:44;;;;;;;;;11.33;10.33;;;;;18.53;73.17;101134.09;5077106;27;45711;-62
2022/10/17 08:06:09;;;;;;;;;13.33;9.33;;;;;18.50;72.91;101132.47;5077019;27;45898;-62
2022/10/17 08:08:35;;;;;;;;;8.00;8.00;;;;;18.50;73.28;101127.16;5077709;27;45412;-62
2022/10/17 08:11:03;;;;;;;;;9.75;9.00;;;;;18.54;73.30;101138.50;5077007;27;45480;-62
2022/10/17 08:13:28;;;;;;;;;9.67;9.67;;;;;18.54;73.13;101133.16;5075741;28;45409;-63
2022/10/17 08:15:58;;;;;;;;;6.67;6.67;;;;;18.57;73.32;101140.13;5076732;27;45480;-61
2022/10/17 08:18:23;;;;;;;;;9.67;8.67;;;;;18.56;73.16;101144.56;5077020;27;45369;-62
2022/10/17 08:20:49;;;;;;;;;12.67;10.00;;;;;18.58;73.33;101139.16;5076328;27;50670;-61
2022/10/17 08:23:14;;;;;;;;;9.67;9.67;;;;;18.60;72.81;101140.78;5076464;27;49486;-63
2022/10/17 08:25:39;;;;;;;;;11.00;10.33;;;;;18.62;73.22;101151.31;5076270;27;55724;-62
2022/10/17 08:28:05;;;;;;;;;14.33;12.00;;;;;18.63;73.21;101153.91;5076777;27;55268;-63
2022/10/17 08:30:31;;;;;;;;;9.67;9.33;;;;;18.65;73.37;101164.50;5076601;27;45452;-61
2022/10/17 08:32:56;;;;;;;;;11.67;11.67;;;;;18.68;72.92;101159.81;5076716;27;45572;-62
2022/10/17 08:35:22;;;;;;;;;14.67;13.33;;;;;18.70;72.99;101157.09;5076498;27;45955;-62
2022/10/17 08:37:48;;;;;;;;;11.00;11.00;;;;;18.71;72.97;101169.44;5076385;27;45502;-62
2022/10/17 08:40:32;;;;;;;;;10.00;10.00;;;;;18.72;73.18;101169.31;5075980;27;45392;-62
2022/10/17 08:43:00;;;;;;;;;12.67;10.67;;;;;18.73;73.36;101186.19;5076350;27;45322;-61
2022/10/17 08:45:34;;;;;;;;;13.00;12.67;;;;;18.71;72.96;101174.78;5075031;27;46084;-62
2022/10/17 08:48:03;;;;;;;;;12.33;11.67;;;;;18.76;72.96;101181.56;5076094;27;45495;-62
2022/10/17 08:50:38;;;;;;;;;13.67;12.00;;;;;18.80;73.63;101184.03;5076315;27;45421;-62
2022/10/17 08:53:08;;;;;;;;;14.00;13.67;;;;;18.82;73.16;101190.16;5076069;27;45348;-62
2022/10/17 08:55:40;;;;;;;;;10.67;10.67;;;;;18.86;73.50;101189.00;5075870;27;45511;-62
2022/10/17 08:58:14;;;;;;;;;10.00;10.00;;;;;18.87;73.01;101185.41;5076077;27;45315;-61
2022/10/17 09:00:45;;;;;;;;;9.67;9.67;;;;;18.89;73.16;101195.00;5076306;27;45492;-61
2022/10/17 09:03:31;;;;;;;;;11.33;11.33;;;;;18.89;73.55;101194.16;5075199;27;45687;-61
2022/10/17 09:06:04;;;;;;;;;9.67;8.67;;;;;18.93;73.45;101212.53;5091822;27;47766;-61
2022/10/17 09:08:36;;;;;;;;;11.33;11.00;;;;;18.95;73.53;101207.09;5076742;27;45476;-61
2022/10/17 09:11:22;;;;;;;;;10.00;10.00;;;;;18.96;73.95;101227.47;5076099;27;45605;-62
2022/10/17 09:14:16;;;;;;;;;11.00;10.00;;;;;18.93;73.93;101235.66;5076151;27;45381;-61
2022/10/17 09:17:00;;;;;;;;;8.75;8.50;;;;;18.96;74.26;101240.81;5075899;27;46405;-62
2022/10/17 09:19:36;;;;;;;;;7.50;7.50;;;;;18.97;73.69;101247.88;5075889;27;45374;-62
2022/10/17 09:22:21;;;;;;;;;8.75;7.00;;;;;19.01;73.71;101261.84;5076092;27;45437;-61
2022/10/17 09:24:55;;;;;;;;;7.50;5.00;;;;;19.02;73.79;101260.91;5074438;27;45458;-63
2022/10/17 09:27:23;;;;;;;;;10.67;9.67;;;;;19.02;74.26;101267.13;5075816;27;45410;-61
2022/10/17 09:29:53;;;;;;;;;8.33;8.33;;;;;19.03;73.90;101267.97;5075846;27;45413;-61
2022/10/17 09:32:23;;;;;;;;;11.00;11.00;;;;;18.99;73.82;101267.28;5075603;27;45479;-61
2022/10/17 09:34:48;;;;;;;;;6.75;6.75;;;;;19.03;74.16;101273.28;5075547;27;45497;-61
2022/10/17 09:37:16;;;;;;;;;8.33;8.33;;;;;19.02;74.06;101271.56;5075312;27;46293;-61
2022/10/17 09:39:42;;;;;;;;;11.50;8.50;;;;;19.01;74.60;101272.53;5075553;27;45444;-61
2022/10/17 09:42:13;;;;;;;;;12.00;9.50;;;;;19.02;75.15;101279.56;5075502;27;45409;-61
2022/10/17 09:44:43;;;;;;;;;9.33;8.33;;;;;19.01;75.56;101284.03;5075702;28;45460;-61
2022/10/17 09:47:31;;;;;;;;;9.75;7.50;;;;;19.02;75.29;101284.91;5075492;27;45425;-61
2022/10/17 09:49:56;;;;;;;;;8.75;7.75;;;;;19.03;75.07;101292.81;5074972;28;45470;-61
2022/10/17 09:52:34;;;;;;;;;11.25;7.25;;;;;19.03;75.38;101281.28;5075593;27;45375;-63
2022/10/17 09:55:14;;;;;;;;;11.33;10.00;;;;;19.05;75.67;101284.69;5075571;27;45541;-63
2022/10/17 09:57:59;;;;;;;;;10.67;9.00;;;;;19.07;75.95;101282.81;5077244;27;45362;-63
2022/10/17 10:00:28;;;;;;;;;11.33;11.33;;;;;19.10;75.80;101286.19;5078983;28;45571;-62
2022/10/17 10:03:11;;;;;;;;;11.33;10.00;;;;;19.09;76.10;101284.44;5079006;27;45504;-61
2022/10/17 10:05:37;;;;;;;;;15.00;14.00;;;;;19.10;76.13;101282.63;5079066;27;45530;-62
2022/10/17 10:08:05;;;;;;;;;11.67;11.67;;;;;19.10;76.23;101288.84;5078670;27;46377;-62
2022/10/17 10:10:31;;;;;;;;;12.33;11.67;;;;;19.09;76.68;101279.09;5079497;27;45444;-63
2022/10/17 10:13:14;;;;;;;;;14.33;12.00;;;;;19.09;76.47;101279.09;5078661;27;45350;-61
2022/10/17 10:15:42;;;;;;;;;13.67;13.00;;;;;19.10;77.37;101293.28;5078682;27;45468;-61
2022/10/17 10:18:28;;;;;;;;;13.00;12.00;;;;;19.07;77.14;101291.66;5078240;27;45483;-63
2022/10/17 10:21:09;;;;;;;;;17.00;14.33;;;;;19.03;77.55;101292.81;5079168;27;45300;-63
2022/10/17 10:23:39;;;;;;;;;13.33;13.00;;;;;18.98;77.92;101303.75;5078999;27;45452;-63
2022/10/17 10:26:26;;;;;;;;;14.00;13.67;;;;;18.95;77.92;101321.72;5078633;27;45401;-63
2022/10/17 10:29:01;;;;;;;;;14.00;14.00;;;;;18.96;78.38;101328.78;5078456;27;46192;-63
2022/10/17 10:31:31;;;;;;;;;13.67;13.33;;;;;18.99;77.98;101352.56;5078323;27;45498;-63
2022/10/17 10:33:59;;;;;;;;;15.67;15.67;;;;;19.01;78.17;101347.16;5078543;27;45426;-63
2022/10/17 10:36:25;;;;;;;;;12.67;12.67;;;;;19.01;78.29;101350.69;5078537;27;45524;-63
2022/10/17 10:38:56;;;;;;;;;13.00;12.67;;;;;19.00;78.67;101343.66;5077590;28;45437;-62
2022/10/17 10:41:22;;;;;;;;;11.67;11.67;;;;;19.03;78.92;101346.13;5077872;27;45452;-62
2022/10/17 10:43:50;;;;;;;;;17.67;17.00;;;;;19.05;78.26;101354.91;5077908;27;45455;-62
2022/10/17 10:46:26;;;;;;;;;15.67;15.67;;;;;19.05;78.93;101362.91;5077823;27;45393;-63
2022/10/17 10:48:58;;;;;;;;;20.00;19.67;;;;;19.04;78.19;101371.84;5077752;27;46500;-63
2022/10/17 10:51:39;;;;;;;;;15.67;14.33;;;;;19.03;78.76;101375.47;5077529;27;45865;-63
2022/10/17 10:54:41;;;;;;;;;14.33;13.33;;;;;19.01;78.61;101373.84;5077834;28;45443;-63
2022/10/17 10:57:13;;;;;;;;;14.33;14.33;;;;;19.02;78.71;101386.19;5065930;27;45634;-62
2022/10/17 10:59:47;;;;;;;;;14.67;13.33;;;;;18.98;78.86;101391.72;5077809;27;45502;-63
2022/10/17 11:02:44;;;;;;;;;24.00;21.33;;;;;19.00;78.98;101382.78;5077831;27;45486;-63
2022/10/17 11:05:24;;;;;;;;;38.67;34.67;;;;;18.96;79.29;101358.94;5077389;27;45415;-63
2022/10/17 11:08:10;;;;;;;;;24.67;22.00;;;;;18.99;79.13;101360.56;5077938;27;45478;-63
2022/10/17 11:10:48;;;;;;;;;14.67;14.67;;;;;19.02;79.48;101371.09;5077870;27;46508;-63
2022/10/17 11:13:20;;;;;;;;;15.00;13.67;;;;;19.00;78.96;101385.47;5085559;27;45703;-63
2022/10/17 11:15:53;;;;;;;;;18.00;16.00;;;;;18.98;79.76;101388.19;5083097;27;45524;-63
2022/10/17 11:18:32;;;;;;;;;16.00;16.00;;;;;18.95;79.72;101383.91;5088357;27;45602;-62
2022/10/17 11:21:14;;;;;;;;;15.33;15.00;;;;;18.93;79.94;101395.59;5085166;27;45425;-62
2022/10/17 11:23:47;;;;;;;;;14.67;12.67;;;;;18.95;80.04;101409.69;5095400;27;45528;-62
2022/10/17 11:26:25;;;;;;;;;18.00;16.67;;;;;18.96;79.71;101403.41;5088503;27;45527;-63
2022/10/17 11:29:00;;;;;;;;;19.67;18.33;;;;;18.96;79.89;101396.28;5079515;27;45506;-61